createdAt,value
2022-12-25T00:00:27.364Z,1003.4
2022-12-25T00:01:29.363Z,1003.4
2022-12-25T00:02:31.613Z,1003.4
2022-12-25T00:03:33.410Z,1003.5
2022-12-25T00:04:35.315Z,1003.5
2022-12-25T00:05:37.295Z,1003.5
2022-12-25T00:06:39.362Z,1003.6
2022-12-25T00:07:41.313Z,1003.5
2022-12-25T00:08:43.307Z,1003.6
2022-12-25T00:09:45.323Z,1003.6
2022-12-25T00:10:47.332Z,1003.6
2022-12-25T00:11:49.302Z,1003.7
2022-12-25T00:12:51.294Z,1003.6
2022-12-25T00:13:53.334Z,1003.6
2022-12-25T00:14:55.334Z,1003.6
2022-12-25T00:15:57.384Z,1003.7
2022-12-25T00:16:59.333Z,1003.7
2022-12-25T00:18:01.854Z,1003.7
2022-12-25T00:19:03.326Z,1003.7
2022-12-25T00:20:05.369Z,1003.8
2022-12-25T00:21:07.394Z,1003.1
2022-12-25T00:22:09.337Z,1003.6
2022-12-25T00:23:11.345Z,1003.7
2022-12-25T00:24:13.342Z,1003.7
2022-12-25T00:25:15.314Z,1003.7
2022-12-25T00:26:17.353Z,1003.8
2022-12-25T00:27:19.354Z,1003.8
2022-12-25T00:28:21.318Z,1003.8
2022-12-25T00:29:23.307Z,1003.7
2022-12-25T00:30:24.320Z,1003.8
2022-12-25T00:31:26.408Z,1003.8
2022-12-25T00:32:28.375Z,1003.8
2022-12-25T00:33:30.314Z,1003.7
2022-12-25T00:34:32.391Z,1003.7
2022-12-25T00:35:34.297Z,1003.7
2022-12-25T00:36:41.323Z,1003.7
2022-12-25T00:37:38.398Z,1003.8
2022-12-25T00:38:40.292Z,1003.8
2022-12-25T00:39:41.337Z,1003.9
2022-12-25T00:40:43.359Z,1003.9
2022-12-25T00:41:45.353Z,1003.9
2022-12-25T00:42:47.373Z,1003.9
2022-12-25T00:43:49.366Z,1004
2022-12-25T00:44:51.307Z,1003.9
2022-12-25T00:45:52.331Z,1003.9
2022-12-25T00:46:53.424Z,1003.9
2022-12-25T00:47:55.353Z,1003.9
2022-12-25T00:48:57.334Z,1003.9
2022-12-25T00:49:58.333Z,1003.9
2022-12-25T00:51:00.362Z,1003.9
2022-12-25T00:52:02.375Z,1003.9
2022-12-25T00:53:04.382Z,1003.8
2022-12-25T00:54:06.392Z,1003.9
2022-12-25T00:55:08.344Z,1003.9
2022-12-25T00:56:10.322Z,1003.9
2022-12-25T00:57:12.354Z,1003.9
2022-12-25T00:58:14.362Z,1003.9
2022-12-25T00:59:16.362Z,1003.9
2022-12-25T01:00:18.293Z,1003.9
2022-12-25T01:01:20.531Z,1003.9
2022-12-25T01:02:22.641Z,1003.8
2022-12-25T01:03:24.360Z,1003.9
2022-12-25T01:04:25.358Z,1004
2022-12-25T01:05:27.394Z,1003.9
2022-12-25T01:06:29.375Z,1004
2022-12-25T01:07:31.313Z,1004
2022-12-25T01:08:33.431Z,1004
2022-12-25T01:09:35.412Z,1004.1
2022-12-25T01:10:37.344Z,1004
2022-12-25T01:11:39.356Z,1004
2022-12-25T01:12:41.366Z,1004
2022-12-25T01:13:43.375Z,1004.1
2022-12-25T01:14:45.553Z,1003.4
2022-12-25T01:15:47.820Z,1003.9
2022-12-25T01:16:49.369Z,1004
2022-12-25T01:17:50.378Z,1004.1
2022-12-25T01:18:52.313Z,1004.1
2022-12-25T01:19:54.336Z,1004.1
2022-12-25T01:20:56.307Z,1004.1
2022-12-25T01:21:57.371Z,1004.2
2022-12-25T01:22:59.353Z,1004.2
2022-12-25T01:24:01.414Z,1004.2
2022-12-25T01:25:03.376Z,1004.2
2022-12-25T01:26:05.396Z,1004.3
2022-12-25T01:27:07.353Z,1003.7
2022-12-25T01:28:09.413Z,1004.1
2022-12-25T01:29:11.335Z,1003.7
2022-12-25T01:30:13.440Z,1004.2
2022-12-25T01:31:15.498Z,1003.6
2022-12-25T01:32:17.427Z,1004.2
2022-12-25T01:33:19.335Z,1004.4
2022-12-25T01:34:21.453Z,1004.3
2022-12-25T01:35:23.436Z,1004.4
2022-12-25T01:36:25.533Z,1004.4
2022-12-25T01:37:27.415Z,1004.3
2022-12-25T01:38:29.558Z,1004.3
2022-12-25T01:39:31.445Z,1004.3
2022-12-25T01:40:33.449Z,1004.3
2022-12-25T01:41:35.334Z,1004.3
2022-12-25T01:42:37.513Z,1004.3
2022-12-25T01:43:39.353Z,1004.3
2022-12-25T01:44:40.592Z,1004.3
2022-12-25T01:45:42.746Z,1004.3
2022-12-25T01:46:44.350Z,1004.3
2022-12-25T01:47:46.412Z,1004.3
2022-12-25T01:48:48.381Z,1004.3
2022-12-25T01:49:50.358Z,1004.2
2022-12-25T01:50:52.501Z,1004.2
2022-12-25T01:51:54.352Z,1004.2
2022-12-25T01:52:56.361Z,1004.2
2022-12-25T01:53:57.394Z,1004.3
2022-12-25T01:54:59.366Z,1004.2
2022-12-25T01:56:01.456Z,1004.2
2022-12-25T01:57:03.364Z,1004.1
2022-12-25T01:58:05.480Z,1004.2
2022-12-25T01:59:07.318Z,1004.2
2022-12-25T02:00:08.417Z,1004.3
2022-12-25T02:01:10.406Z,1004.3
2022-12-25T02:02:12.490Z,1004.4
2022-12-25T02:03:14.426Z,1004.3
2022-12-25T02:07:05.391Z,1004.3
2022-12-25T02:08:07.397Z,1004.3
2022-12-25T02:09:09.387Z,1004.3
2022-12-25T02:10:11.488Z,1004.3
2022-12-25T02:11:13.489Z,1004.2
2022-12-25T02:12:15.423Z,1004.3
2022-12-25T02:13:17.418Z,1004.3
2022-12-25T02:14:19.426Z,1004.3
2022-12-25T02:15:21.720Z,1004.3
2022-12-25T02:16:23.374Z,1004.3
2022-12-25T02:17:25.392Z,1004.4
2022-12-25T02:18:27.376Z,1004.4
2022-12-25T02:19:29.422Z,1004.4
2022-12-25T02:20:31.409Z,1004.4
2022-12-25T02:21:33.425Z,1004.4
2022-12-25T02:22:35.486Z,1004.4
2022-12-25T02:23:37.457Z,1004.3
2022-12-25T02:24:39.423Z,1004.3
2022-12-25T02:25:41.419Z,1004.4
2022-12-25T02:26:43.421Z,1004.4
2022-12-25T02:27:45.443Z,1004.3
2022-12-25T02:28:47.417Z,1004.4
2022-12-25T02:29:49.482Z,1004.4
2022-12-25T02:30:51.457Z,1004.3
2022-12-25T02:31:53.464Z,1004.4
2022-12-25T02:32:55.444Z,1004.5
2022-12-25T02:33:57.400Z,1004.4
2022-12-25T02:34:59.477Z,1004.4
2022-12-25T02:36:01.479Z,1004.4
2022-12-25T02:37:03.339Z,1004.5
2022-12-25T02:38:04.364Z,1004.5
2022-12-25T02:39:06.398Z,1004.5
2022-12-25T02:40:08.525Z,1004.5
2022-12-25T02:41:10.450Z,1004.5
2022-12-25T02:42:12.385Z,1004.5
2022-12-25T02:43:13.384Z,1004.5
2022-12-25T02:44:15.465Z,1004.5
2022-12-25T02:45:17.509Z,1004.5
2022-12-25T02:46:19.582Z,1004.5
2022-12-25T02:47:21.899Z,1004.5
2022-12-25T02:48:23.479Z,1004.6
2022-12-25T02:49:25.338Z,1004.6
2022-12-25T02:50:26.442Z,1004.6
2022-12-25T02:51:28.469Z,1004.7
2022-12-25T02:52:30.478Z,1004.7
2022-12-25T02:53:32.395Z,1004.7
2022-12-25T02:54:34.432Z,1004.7
2022-12-25T02:55:36.461Z,1004.7
2022-12-25T02:56:38.483Z,1004.7
2022-12-25T02:57:45.486Z,1004.7
2022-12-25T02:58:47.486Z,1004.7
2022-12-25T02:59:49.449Z,1004.7
2022-12-25T03:00:51.439Z,1004.7
2022-12-25T03:01:53.600Z,1004.7
2022-12-25T03:02:55.437Z,1004.8
2022-12-25T03:03:57.375Z,1004.8
2022-12-25T03:04:59.506Z,1004.7
2022-12-25T03:06:01.436Z,1004.7
2022-12-25T03:07:03.450Z,1004.7
2022-12-25T03:08:05.498Z,1004.7
2022-12-25T03:09:07.478Z,1004.7
2022-12-25T03:10:09.497Z,1004.7
2022-12-25T03:11:11.350Z,1004.7
2022-12-25T03:12:13.492Z,1004.7
2022-12-25T03:13:15.426Z,1004.6
2022-12-25T03:14:17.417Z,1004.6
2022-12-25T03:15:19.499Z,1004.6
2022-12-25T03:16:22.068Z,1004.7
2022-12-25T03:17:23.463Z,1004.7
2022-12-25T03:18:25.507Z,1004.7
2022-12-25T03:19:27.519Z,1004.7
2022-12-25T03:20:29.799Z,1004.7
2022-12-25T03:21:31.446Z,1004.7
2022-12-25T03:22:33.557Z,1004.8
2022-12-25T03:23:35.477Z,1004.8
2022-12-25T03:24:37.382Z,1004.8
2022-12-25T03:25:38.399Z,1004.9
2022-12-25T03:26:39.699Z,1004.9
2022-12-25T03:27:41.705Z,1005
2022-12-25T03:28:43.502Z,1004.9
2022-12-25T03:29:45.664Z,1005
2022-12-25T03:30:47.776Z,1004.9
2022-12-25T03:31:49.453Z,1004.9
2022-12-25T03:32:51.379Z,1005
2022-12-25T03:33:53.484Z,1004.7
2022-12-25T03:34:55.426Z,1005
2022-12-25T03:35:57.545Z,1005
2022-12-25T03:36:59.579Z,1005
2022-12-25T03:38:01.949Z,1005.1
2022-12-25T03:39:08.437Z,1005.1
2022-12-25T03:40:10.521Z,1005.1
2022-12-25T03:41:12.467Z,1005.1
2022-12-25T03:42:14.539Z,1005.1
2022-12-25T03:43:16.519Z,1005.1
2022-12-25T03:44:18.413Z,1005.1
2022-12-25T03:45:20.443Z,1005.1
2022-12-25T03:46:22.561Z,1005.1
2022-12-25T03:47:24.641Z,1005.1
2022-12-25T03:48:26.385Z,1005.2
2022-12-25T03:49:28.409Z,1005.1
2022-12-25T03:50:30.460Z,1005.1
2022-12-25T03:51:32.408Z,1005.2
2022-12-25T03:52:34.735Z,1005.1
2022-12-25T03:53:36.422Z,1004.5
2022-12-25T03:54:38.539Z,1005
2022-12-25T03:55:40.450Z,1005.1
2022-12-25T03:56:42.460Z,1005.1
2022-12-25T03:57:44.523Z,1005.2
2022-12-25T03:58:46.542Z,1005.2
2022-12-25T03:59:48.426Z,1005.2
2022-12-25T04:00:50.419Z,1005.2
2022-12-25T04:01:52.862Z,1005.2
2022-12-25T04:02:54.602Z,1005.2
2022-12-25T04:03:56.419Z,1005.2
2022-12-25T04:04:58.419Z,1005.2
2022-12-25T04:06:00.519Z,1005.2
2022-12-25T04:07:02.476Z,1005.2
2022-12-25T04:08:04.466Z,1004.8
2022-12-25T04:09:06.508Z,1005.1
2022-12-25T04:10:08.458Z,1005.1
2022-12-25T04:11:10.527Z,1005.2
2022-12-25T04:12:12.439Z,1005.2
2022-12-25T04:13:14.402Z,1005.2
2022-12-25T04:14:16.535Z,1005.3
2022-12-25T04:15:18.615Z,1005.3
2022-12-25T04:16:20.541Z,1005.3
2022-12-25T04:17:22.410Z,1004.9
2022-12-25T04:18:24.486Z,1005.1
2022-12-25T04:19:26.459Z,1005.1
2022-12-25T04:20:28.443Z,1005.1
2022-12-25T04:21:30.539Z,1005.1
2022-12-25T04:22:32.415Z,1005.1
2022-12-25T04:23:34.450Z,1005.1
2022-12-25T04:24:36.443Z,1005.1
2022-12-25T04:25:38.759Z,1005.2
2022-12-25T04:26:40.460Z,1005.2
2022-12-25T04:27:42.440Z,1005.2
2022-12-25T04:28:44.487Z,1005.2
2022-12-25T04:29:46.389Z,1005.3
2022-12-25T04:30:47.664Z,1005.2
2022-12-25T04:31:49.509Z,1005.2
2022-12-25T04:32:51.501Z,1005.2
2022-12-25T04:33:53.405Z,1005.2
2022-12-25T04:34:55.541Z,1005.2
2022-12-25T04:35:57.621Z,1005.2
2022-12-25T04:36:59.462Z,1005.1
2022-12-25T04:38:01.639Z,1005.2
2022-12-25T04:39:03.426Z,1005.2
2022-12-25T04:40:05.561Z,1005.2
2022-12-25T04:41:07.460Z,1005.2
2022-12-25T04:42:09.479Z,1005.2
2022-12-25T04:43:11.541Z,1005.2
2022-12-25T04:44:13.547Z,1005.2
2022-12-25T04:45:15.545Z,1005.2
2022-12-25T04:46:17.640Z,1005.2
2022-12-25T04:47:19.481Z,1005.2
2022-12-25T04:48:21.487Z,1005.3
2022-12-25T04:49:23.644Z,1005.2
2022-12-25T04:50:25.488Z,1005.3
2022-12-25T04:51:27.481Z,1005.3
2022-12-25T04:52:29.499Z,1005.3
2022-12-25T04:53:31.403Z,1005.3
2022-12-25T04:54:33.518Z,1005.3
2022-12-25T04:55:35.573Z,1005.4
2022-12-25T04:56:41.790Z,1005.4
2022-12-25T04:57:39.544Z,1005.4
2022-12-25T04:58:41.466Z,1005.3
2022-12-25T04:59:43.450Z,1005.3
2022-12-25T05:00:45.452Z,1005.3
2022-12-25T05:01:46.537Z,1005.3
2022-12-25T05:02:48.609Z,1005.3
2022-12-25T05:03:50.456Z,1005.4
2022-12-25T05:04:51.489Z,1005.3
2022-12-25T05:05:53.479Z,1005.3
2022-12-25T05:06:55.500Z,1005.3
2022-12-25T05:07:57.574Z,1005.3
2022-12-25T05:08:59.460Z,1005.4
2022-12-25T05:10:01.529Z,1005.4
2022-12-25T05:11:03.484Z,1005.4
2022-12-25T05:12:05.481Z,1005.4
2022-12-25T05:13:07.519Z,1005.1
2022-12-25T05:14:09.490Z,1005.4
2022-12-25T05:15:11.483Z,1005.4
2022-12-25T05:16:13.568Z,1005.4
2022-12-25T05:17:15.548Z,1005.4
2022-12-25T05:18:17.443Z,1005.5
2022-12-25T05:19:19.462Z,1005.5
2022-12-25T05:20:21.480Z,1005.5
2022-12-25T05:21:23.526Z,1005.6
2022-12-25T05:22:25.462Z,1005.6
2022-12-25T05:23:27.482Z,1005.6
2022-12-25T05:24:29.462Z,1005.7
2022-12-25T05:25:31.589Z,1005.9
2022-12-25T05:26:33.528Z,1005.8
2022-12-25T05:27:35.546Z,1005.7
2022-12-25T05:28:37.480Z,1005.7
2022-12-25T05:29:39.483Z,1005.7
2022-12-25T05:30:41.499Z,1005.6
2022-12-25T05:31:43.498Z,1005.7
2022-12-25T05:32:45.502Z,1005.7
2022-12-25T05:33:47.560Z,1005.7
2022-12-25T05:34:49.459Z,1005.7
2022-12-25T05:35:51.500Z,1005.7
2022-12-25T05:36:53.525Z,1005.7
2022-12-25T05:37:55.510Z,1005.7
2022-12-25T05:38:57.472Z,1005.6
2022-12-25T05:39:59.418Z,1005.6
2022-12-25T05:41:01.540Z,1005.6
2022-12-25T05:42:03.522Z,1005.7
2022-12-25T05:43:05.463Z,1005.7
2022-12-25T05:44:07.494Z,1005.7
2022-12-25T05:45:09.482Z,1005.8
2022-12-25T05:46:11.619Z,1005.7
2022-12-25T05:47:13.613Z,1005.8
2022-12-25T05:48:15.580Z,1005.3
2022-12-25T05:49:17.547Z,1005.6
2022-12-25T05:50:19.504Z,1005.6
2022-12-25T05:51:21.486Z,1005.6
2022-12-25T05:52:23.506Z,1005.7
2022-12-25T05:53:25.420Z,1005.7
2022-12-25T05:54:26.463Z,1005.7
2022-12-25T05:55:28.518Z,1005.7
2022-12-25T05:56:30.487Z,1005.7
2022-12-25T05:57:32.529Z,1005.7
2022-12-25T05:58:34.501Z,1005.7
2022-12-25T05:59:36.511Z,1005.7
2022-12-25T06:00:38.500Z,1005.7
2022-12-25T06:01:40.545Z,1005.8
2022-12-25T06:02:42.650Z,1005.7
2022-12-25T06:03:44.852Z,1005.8
2022-12-25T06:04:46.462Z,1005.7
2022-12-25T06:05:48.640Z,1005.8
2022-12-25T06:06:50.542Z,1005.8
2022-12-25T06:07:52.481Z,1005.7
2022-12-25T06:08:54.449Z,1005.8
2022-12-25T06:09:55.480Z,1005.8
2022-12-25T06:10:57.608Z,1005.9
2022-12-25T06:11:59.539Z,1005.9
2022-12-25T06:13:01.560Z,1005.9
2022-12-25T06:14:03.608Z,1005.9
2022-12-25T06:15:05.499Z,1006
2022-12-25T06:16:07.606Z,1006
2022-12-25T06:17:09.545Z,1006.1
2022-12-25T06:18:11.563Z,1006.1
2022-12-25T06:19:13.483Z,1006.1
2022-12-25T06:20:15.487Z,1006.1
2022-12-25T06:21:17.508Z,1006.1
2022-12-25T06:22:19.484Z,1006.1
2022-12-25T06:23:21.607Z,1006
2022-12-25T06:24:23.537Z,1006.1
2022-12-25T06:25:25.567Z,1006.1
2022-12-25T06:26:28.155Z,1006.1
2022-12-25T06:27:29.653Z,1006.2
2022-12-25T06:28:31.449Z,1006.2
2022-12-25T06:29:32.479Z,1006.3
2022-12-25T06:30:33.527Z,1006.3
2022-12-25T06:31:35.604Z,1006.3
2022-12-25T06:32:37.539Z,1006.3
2022-12-25T06:33:39.560Z,1005.6
2022-12-25T06:34:41.559Z,1006.2
2022-12-25T06:35:43.607Z,1006.3
2022-12-25T06:36:45.545Z,1006.3
2022-12-25T06:37:47.500Z,1006.4
2022-12-25T06:38:49.566Z,1006.4
2022-12-25T06:39:51.502Z,1006.5
2022-12-25T06:40:53.557Z,1006.4
2022-12-25T06:41:55.500Z,1006.5
2022-12-25T06:42:57.480Z,1006.5
2022-12-25T06:43:58.556Z,1006.5
2022-12-25T06:45:00.556Z,1006.5
2022-12-25T06:46:02.682Z,1006.6
2022-12-25T06:47:04.521Z,1006.5
2022-12-25T06:48:06.511Z,1006.5
2022-12-25T06:49:08.603Z,1006.5
2022-12-25T06:50:10.622Z,1006.5
2022-12-25T06:51:12.558Z,1006.5
2022-12-25T06:52:14.621Z,1006.5
2022-12-25T06:53:16.632Z,1006.5
2022-12-25T06:54:18.558Z,1006.5
2022-12-25T06:55:20.439Z,1006.4
2022-12-25T06:56:21.502Z,1006.6
2022-12-25T06:57:23.566Z,1006.4
2022-12-25T06:58:25.519Z,1006.4
2022-12-25T06:59:27.506Z,1006.4
2022-12-25T07:00:29.586Z,1006.5
2022-12-25T07:01:31.687Z,1006.5
2022-12-25T07:02:33.830Z,1006.5
2022-12-25T07:03:35.658Z,1006.5
2022-12-25T07:04:37.947Z,1006.5
2022-12-25T07:05:39.558Z,1006.5
2022-12-25T07:06:41.545Z,1006.5
2022-12-25T07:07:43.485Z,1006.5
2022-12-25T07:08:45.469Z,1006.5
2022-12-25T07:09:46.586Z,1006.5
2022-12-25T07:10:48.498Z,1006.5
2022-12-25T07:11:50.488Z,1006.5
2022-12-25T07:12:51.509Z,1006.5
2022-12-25T07:13:53.643Z,1006.5
2022-12-25T07:14:55.639Z,1006.4
2022-12-25T07:15:57.529Z,1006.5
2022-12-25T07:16:58.571Z,1006.5
2022-12-25T07:18:00.567Z,1006.5
2022-12-25T07:19:02.528Z,1006.5
2022-12-25T07:20:04.582Z,1006.1
2022-12-25T07:21:06.510Z,1006.4
2022-12-25T07:22:07.561Z,1006.5
2022-12-25T07:23:09.584Z,1006.5
2022-12-25T07:24:11.563Z,1006.5
2022-12-25T07:25:13.587Z,1006.5
2022-12-25T07:26:15.698Z,1006.5
2022-12-25T07:27:17.554Z,1006.6
2022-12-25T07:28:19.539Z,1006.6
2022-12-25T07:29:21.513Z,1006.6
2022-12-25T07:30:23.620Z,1006.6
2022-12-25T07:31:25.718Z,1006.6
2022-12-25T07:32:27.550Z,1006.6
2022-12-25T07:33:29.577Z,1006.7
2022-12-25T07:34:31.601Z,1006.7
2022-12-25T07:35:33.555Z,1006.6
2022-12-25T07:36:35.586Z,1006.6
2022-12-25T07:37:37.567Z,1006.6
2022-12-25T07:38:39.606Z,1006.6
2022-12-25T07:39:41.521Z,1006.5
2022-12-25T07:40:43.642Z,1006.6
2022-12-25T07:41:45.565Z,1006.6
2022-12-25T07:42:47.619Z,1006.6
2022-12-25T07:43:49.579Z,1006.6
2022-12-25T07:44:51.468Z,1006.7
2022-12-25T07:45:52.660Z,1006.6
2022-12-25T07:46:54.555Z,1006.6
2022-12-25T07:48:01.364Z,1006.5
2022-12-25T07:48:58.827Z,1006.5
2022-12-25T07:50:01.274Z,1006.5
2022-12-25T07:51:02.901Z,1006.1
2022-12-25T07:52:04.621Z,1006.4
2022-12-25T07:53:06.694Z,1006.5
2022-12-25T07:54:08.606Z,1006.6
2022-12-25T07:55:10.549Z,1006.5
2022-12-25T07:56:12.564Z,1006.5
2022-12-25T07:57:14.616Z,1006.5
2022-12-25T07:58:21.414Z,1006.5
2022-12-25T07:59:18.539Z,1006.6
2022-12-25T08:00:20.578Z,1006.6
2022-12-25T08:01:22.680Z,1006.5
2022-12-25T08:02:24.483Z,1006.6
2022-12-25T08:03:25.673Z,1006.5
2022-12-25T08:04:27.564Z,1006.5
2022-12-25T08:05:29.518Z,1006.5
2022-12-25T08:06:31.693Z,1006.5
2022-12-25T08:07:33.501Z,1006.5
2022-12-25T08:08:35.657Z,1006.5
2022-12-25T08:09:37.759Z,1006.5
2022-12-25T08:10:39.879Z,1006.6
2022-12-25T08:11:41.602Z,1006.6
2022-12-25T08:12:43.621Z,1006.6
2022-12-25T08:13:45.563Z,1006.6
2022-12-25T08:14:47.614Z,1006.6
2022-12-25T08:15:49.556Z,1006.6
2022-12-25T08:16:51.724Z,1006.6
2022-12-25T08:17:53.600Z,1006.6
2022-12-25T08:18:55.607Z,1006.6
2022-12-25T08:19:57.538Z,1006.6
2022-12-25T08:20:59.589Z,1006.6
2022-12-25T08:22:01.708Z,1006.6
2022-12-25T08:23:03.558Z,1006.6
2022-12-25T08:24:04.538Z,1006.6
2022-12-25T08:25:05.526Z,1006.6
2022-12-25T08:26:07.569Z,1006.6
2022-12-25T08:27:09.607Z,1006.7
2022-12-25T08:28:11.539Z,1006.7
2022-12-25T08:29:13.615Z,1006.7
2022-12-25T08:30:15.755Z,1006.7
2022-12-25T08:31:17.653Z,1006.7
2022-12-25T08:32:19.520Z,1006.7
2022-12-25T08:33:20.480Z,1006.7
2022-12-25T08:34:21.640Z,1006.8
2022-12-25T08:35:24.069Z,1006.8
2022-12-25T08:36:26.119Z,1006.8
2022-12-25T08:37:27.681Z,1006.8
2022-12-25T08:38:29.517Z,1006.8
2022-12-25T08:39:30.534Z,1006.8
2022-12-25T08:40:31.512Z,1006.8
2022-12-25T08:41:32.531Z,1006.9
2022-12-25T08:42:33.520Z,1006.8
2022-12-25T08:43:34.553Z,1006.8
2022-12-25T08:44:36.622Z,1006.8
2022-12-25T08:45:38.559Z,1006.8
2022-12-25T08:46:40.679Z,1006.8
2022-12-25T08:47:42.599Z,1006.8
2022-12-25T08:48:44.583Z,1006.8
2022-12-25T08:49:46.563Z,1006.8
2022-12-25T08:50:48.560Z,1006.8
2022-12-25T08:51:50.871Z,1006.5
2022-12-25T08:52:52.511Z,1006.7
2022-12-25T08:53:54.643Z,1006.8
2022-12-25T08:54:56.578Z,1006.7
2022-12-25T08:55:58.662Z,1006.9
2022-12-25T08:57:02.759Z,1006.9
2022-12-25T08:58:02.671Z,1006.9
2022-12-25T08:59:04.595Z,1006.9
2022-12-25T09:00:06.708Z,1006.9
2022-12-25T09:01:08.716Z,1006.9
2022-12-25T09:02:10.804Z,1006.9
2022-12-25T09:03:12.638Z,1006.9
2022-12-25T09:04:14.589Z,1006.9
2022-12-25T09:05:16.582Z,1006.8
2022-12-25T09:06:18.579Z,1006.9
2022-12-25T09:07:20.599Z,1006.4
2022-12-25T09:08:22.672Z,1006.8
2022-12-25T09:09:24.620Z,1006.9
2022-12-25T09:10:26.618Z,1006.9
2022-12-25T09:11:28.739Z,1006.9
2022-12-25T09:12:30.811Z,1006.9
2022-12-25T09:13:32.541Z,1007
2022-12-25T09:14:34.560Z,1007
2022-12-25T09:15:36.743Z,1007.1
2022-12-25T09:16:38.537Z,1007
2022-12-25T09:17:40.741Z,1007
2022-12-25T09:18:42.615Z,1007
2022-12-25T09:19:44.642Z,1007
2022-12-25T09:20:46.668Z,1007
2022-12-25T09:21:48.585Z,1007
2022-12-25T09:22:50.675Z,1006.9
2022-12-25T09:23:52.582Z,1006.9
2022-12-25T09:24:54.647Z,1006.9
2022-12-25T09:25:56.645Z,1006.9
2022-12-25T09:26:58.659Z,1006.2
2022-12-25T09:28:00.621Z,1006.7
2022-12-25T09:29:02.628Z,1006.9
2022-12-25T09:30:09.659Z,1007
2022-12-25T09:31:11.753Z,1007
2022-12-25T09:32:13.624Z,1006.9
2022-12-25T09:33:15.720Z,1006.9
2022-12-25T09:34:19.115Z,1006.9
2022-12-25T09:35:19.667Z,1006.8
2022-12-25T09:36:21.657Z,1006.8
2022-12-25T09:37:24.200Z,1006.9
2022-12-25T09:38:25.637Z,1006.8
2022-12-25T09:39:27.623Z,1006.8
2022-12-25T09:40:29.641Z,1006.7
2022-12-25T09:41:31.839Z,1006.8
2022-12-25T09:42:33.598Z,1006.8
2022-12-25T09:43:35.565Z,1006.8
2022-12-25T09:44:37.581Z,1006.8
2022-12-25T09:45:38.598Z,1006.7
2022-12-25T09:46:40.839Z,1006.7
2022-12-25T09:47:42.560Z,1006.7
2022-12-25T09:48:44.648Z,1006.9
2022-12-25T09:49:46.643Z,1006.7
2022-12-25T09:50:48.882Z,1006.7
2022-12-25T09:51:52.620Z,1006.8
2022-12-25T09:52:54.617Z,1006.7
2022-12-25T09:53:56.651Z,1006.8
2022-12-25T09:54:58.667Z,1006.7
2022-12-25T09:56:00.584Z,1006.7
2022-12-25T09:57:02.726Z,1006.7
2022-12-25T09:58:04.561Z,1006.7
2022-12-25T09:59:06.588Z,1006.7
2022-12-25T10:00:07.630Z,1006.7
2022-12-25T10:01:09.630Z,1006.7
2022-12-25T10:02:11.892Z,1006.8
2022-12-25T10:03:13.656Z,1006.7
2022-12-25T10:04:15.722Z,1006.7
2022-12-25T10:05:17.592Z,1006.7
2022-12-25T10:06:18.584Z,1006.7
2022-12-25T10:07:19.702Z,1006.7
2022-12-25T10:08:21.664Z,1006.6
2022-12-25T10:09:23.640Z,1006.6
2022-12-25T10:10:25.682Z,1006.6
2022-12-25T10:11:27.722Z,1006.6
2022-12-25T10:12:29.659Z,1006.6
2022-12-25T10:13:31.604Z,1006.6
2022-12-25T10:14:33.601Z,1006.6
2022-12-25T10:15:39.102Z,1006.6
2022-12-25T10:16:37.767Z,1006.6
2022-12-25T10:17:39.620Z,1006.6
2022-12-25T10:18:41.615Z,1006.6
2022-12-25T10:19:43.623Z,1006.7
2022-12-25T10:20:45.537Z,1006.6
2022-12-25T10:21:47.620Z,1006.7
2022-12-25T10:22:49.619Z,1006.6
2022-12-25T10:23:51.618Z,1006.6
2022-12-25T10:24:53.621Z,1006.6
2022-12-25T10:25:55.743Z,1006.6
2022-12-25T10:26:57.619Z,1006.6
2022-12-25T10:27:58.626Z,1006.6
2022-12-25T10:29:00.601Z,1006.6
2022-12-25T10:30:02.679Z,1006.5
2022-12-25T10:31:04.737Z,1006.5
2022-12-25T10:32:06.624Z,1006.6
2022-12-25T10:33:12.127Z,1006.5
2022-12-25T10:34:10.600Z,1006.5
2022-12-25T10:35:11.598Z,1006.5
2022-12-25T10:36:12.599Z,1006.4
2022-12-25T10:37:14.620Z,1006.5
2022-12-25T10:38:17.038Z,1006.4
2022-12-25T10:39:18.703Z,1006.4
2022-12-25T10:40:20.591Z,1006.4
2022-12-25T10:41:22.705Z,1006.4
2022-12-25T10:42:24.697Z,1006.4
2022-12-25T10:43:26.681Z,1006.4
2022-12-25T10:44:28.681Z,1006.4
2022-12-25T10:45:30.623Z,1006.4
2022-12-25T10:46:32.666Z,1006.4
2022-12-25T10:47:34.734Z,1006.4
2022-12-25T10:48:37.118Z,1006.3
2022-12-25T10:49:38.657Z,1006.3
2022-12-25T10:50:41.442Z,1006.3
2022-12-25T10:51:43.658Z,1006.3
2022-12-25T10:52:45.812Z,1006.3
2022-12-25T10:53:47.691Z,1006.2
2022-12-25T10:54:50.092Z,1006.2
2022-12-25T10:55:51.659Z,1006.2
2022-12-25T10:56:53.642Z,1006.2
2022-12-25T10:57:55.639Z,1006.2
2022-12-25T10:58:57.618Z,1006.2
2022-12-25T11:00:00.050Z,1006.2
2022-12-25T11:01:01.801Z,1006.2
2022-12-25T11:02:03.771Z,1006.2
2022-12-25T11:03:05.872Z,1006.2
2022-12-25T11:04:06.782Z,1006.2
2022-12-25T11:05:08.662Z,1006.1
2022-12-25T11:06:10.703Z,1006.1
2022-12-25T11:07:12.959Z,1006.1
2022-12-25T11:08:14.707Z,1006
2022-12-25T11:09:16.899Z,1006
2022-12-25T11:10:19.038Z,1005.9
2022-12-25T11:11:20.650Z,1005.9
2022-12-25T11:12:23.081Z,1006
2022-12-25T11:13:24.725Z,1005.9
2022-12-25T11:14:26.653Z,1005.9
2022-12-25T11:15:28.696Z,1005.9
2022-12-25T11:16:30.873Z,1005.9
2022-12-25T11:17:32.693Z,1005.9
2022-12-25T11:18:34.681Z,1005.9
2022-12-25T11:19:37.080Z,1005.9
2022-12-25T11:20:42.467Z,1005.8
2022-12-25T11:21:41.118Z,1005.8
2022-12-25T11:22:42.679Z,1005.8
2022-12-25T11:23:44.661Z,1005.8
2022-12-25T11:24:46.727Z,1005.8
2022-12-25T11:25:48.619Z,1005.8
2022-12-25T11:26:50.780Z,1005.8
2022-12-25T11:27:53.657Z,1005.8
2022-12-25T11:28:54.630Z,1005.8
2022-12-25T11:29:55.621Z,1005.9
2022-12-25T11:30:57.780Z,1005.9
2022-12-25T11:31:59.891Z,1005.9
2022-12-25T11:33:01.858Z,1005.9
2022-12-25T11:34:03.697Z,1005.9
2022-12-25T11:35:05.818Z,1005.9
2022-12-25T11:36:07.800Z,1005.9
2022-12-25T11:37:09.686Z,1005.9
2022-12-25T11:38:12.002Z,1005.8
2022-12-25T11:39:13.644Z,1005.8
2022-12-25T11:40:15.729Z,1005.9
2022-12-25T11:41:17.726Z,1005.9
2022-12-25T11:42:19.650Z,1005.9
2022-12-25T11:43:21.687Z,1005.9
2022-12-25T11:44:23.859Z,1005.9
2022-12-25T11:45:25.698Z,1005.9
2022-12-25T11:46:28.503Z,1005.9
2022-12-25T11:47:30.035Z,1005.9
2022-12-25T11:48:31.649Z,1005.9
2022-12-25T11:49:33.658Z,1005.9
2022-12-25T11:50:36.005Z,1005.9
2022-12-25T11:51:37.840Z,1005.8
2022-12-25T11:52:39.773Z,1005.8
2022-12-25T11:53:42.003Z,1005.9
2022-12-25T11:54:43.835Z,1005.8
2022-12-25T11:55:45.989Z,1005.8
2022-12-25T11:56:48.127Z,1005.8
2022-12-25T11:57:49.690Z,1005.5
2022-12-25T11:58:51.702Z,1005.7
2022-12-25T11:59:53.636Z,1005.8
2022-12-25T12:00:54.711Z,1005.7
2022-12-25T12:01:56.759Z,1005.7
2022-12-25T12:02:58.852Z,1005.7
2022-12-25T12:03:59.699Z,1005.7
2022-12-25T12:05:01.759Z,1005.7
2022-12-25T12:06:03.700Z,1005.7
2022-12-25T12:07:05.657Z,1005.7
2022-12-25T12:08:07.670Z,1005.7
2022-12-25T12:09:10.097Z,1005.7
2022-12-25T12:10:11.762Z,1005.6
2022-12-25T12:11:13.669Z,1005.7
2022-12-25T12:12:15.779Z,1005.7
2022-12-25T12:13:17.719Z,1005.7
2022-12-25T12:14:19.668Z,1005.7
2022-12-25T12:15:20.655Z,1005.7
2022-12-25T12:16:22.666Z,1005.6
2022-12-25T12:17:24.658Z,1005.6
2022-12-25T12:18:26.806Z,1005.6
2022-12-25T12:19:28.726Z,1005.6
2022-12-25T12:20:30.939Z,1005.6
2022-12-25T12:21:32.787Z,1005.6
2022-12-25T12:22:34.677Z,1005.6
2022-12-25T12:23:41.740Z,1005.6
2022-12-25T12:24:43.677Z,1005.6
2022-12-25T12:25:45.679Z,1005.7
2022-12-25T12:26:47.662Z,1005.6
2022-12-25T12:27:49.699Z,1005.6
2022-12-25T12:28:51.679Z,1005.6
2022-12-25T12:29:53.720Z,1005.7
2022-12-25T12:30:55.779Z,1005.6
2022-12-25T12:31:57.833Z,1005.6
2022-12-25T12:32:59.807Z,1005.6
2022-12-25T12:34:01.706Z,1005.7
2022-12-25T12:35:03.780Z,1005.6
2022-12-25T12:36:05.671Z,1005.5
2022-12-25T12:37:07.718Z,1005.5
2022-12-25T12:38:09.732Z,1005.5
2022-12-25T12:39:11.740Z,1005.5
2022-12-25T12:40:13.726Z,1005.6
2022-12-25T12:41:15.774Z,1005.5
2022-12-25T12:42:17.738Z,1005.6
2022-12-25T12:43:19.691Z,1005.5
2022-12-25T12:44:21.739Z,1005.6
2022-12-25T12:45:23.917Z,1005.6
2022-12-25T12:46:30.399Z,1005.6
2022-12-25T12:47:27.804Z,1005.6
2022-12-25T12:48:29.783Z,1005.6
2022-12-25T12:49:31.726Z,1005.6
2022-12-25T12:50:33.922Z,1005.5
2022-12-25T12:51:35.737Z,1005.7
2022-12-25T12:52:37.857Z,1005.7
2022-12-25T12:53:40.146Z,1005.7
2022-12-25T12:54:42.102Z,1005.8
2022-12-25T12:55:43.937Z,1005.7
2022-12-25T12:56:46.011Z,1005.7
2022-12-25T12:57:47.799Z,1005.5